createdAt,value
2022-12-11T00:00:25.064Z,99258.22
2022-12-11T00:02:51.849Z,99254.91
2022-12-11T00:05:18.683Z,99249.06
2022-12-11T00:07:45.511Z,99244.88
2022-12-11T00:10:12.276Z,99242.34
2022-12-11T00:12:38.967Z,99249.06
2022-12-11T00:15:06.350Z,99243.16
2022-12-11T00:17:33.041Z,99244.84
2022-12-11T00:19:59.944Z,99248.19
2022-12-11T00:22:26.636Z,99242.34
2022-12-11T00:24:53.394Z,99250.72
2022-12-11T00:27:21.225Z,99250.72
2022-12-11T00:29:47.995Z,99243.16
2022-12-11T00:32:14.803Z,99243.16
2022-12-11T00:34:41.657Z,99243.97
2022-12-11T00:37:08.418Z,99234.72
2022-12-11T00:39:35.169Z,99247.28
2022-12-11T00:42:01.882Z,99243.94
2022-12-11T00:44:28.670Z,99243.88
2022-12-11T00:46:55.461Z,99245.53
2022-12-11T00:49:22.147Z,99250.56
2022-12-11T00:51:48.977Z,99241.38
2022-12-11T00:54:15.821Z,99248.94
2022-12-11T00:56:43.468Z,99256.47
2022-12-11T00:59:10.262Z,99247.28
2022-12-11T01:01:37.077Z,99246.44
2022-12-11T01:04:03.805Z,99254.00
2022-12-11T01:06:30.519Z,99245.66
2022-12-11T01:09:16.323Z,99245.66
2022-12-11T01:11:43.563Z,99247.28
2022-12-11T01:14:12.286Z,99250.66
2022-12-11T01:16:39.263Z,99248.97
2022-12-11T01:19:06.392Z,99250.63
2022-12-11T01:21:33.309Z,99248.97
2022-12-11T01:24:00.014Z,99255.69
2022-12-11T01:26:30.694Z,99255.66
2022-12-11T01:28:57.553Z,99258.16
2022-12-11T01:31:24.302Z,99252.31
2022-12-11T01:33:54.289Z,99247.28
2022-12-11T01:36:22.734Z,99244.75
2022-12-11T01:38:50.067Z,99249.72
2022-12-11T01:41:18.630Z,99233.00
2022-12-11T01:44:24.243Z,99237.19
2022-12-11T01:46:51.287Z,99235.47
2022-12-11T01:49:22.992Z,99233.75
2022-12-11T01:52:09.499Z,99234.56
2022-12-11T01:54:36.489Z,99233.72
2022-12-11T01:57:08.456Z,99230.34
2022-12-11T01:59:39.659Z,99227.03
2022-12-11T02:02:14.996Z,99226.22
2022-12-11T02:04:44.204Z,99221.19
2022-12-11T02:07:11.049Z,99215.38
2022-12-11T02:09:42.346Z,99228.75
2022-12-11T02:12:48.436Z,99227.06
2022-12-11T02:15:42.659Z,99224.50
2022-12-11T02:18:48.624Z,99242.03
2022-12-11T02:21:33.017Z,99226.09
2022-12-11T02:24:11.838Z,99226.06
2022-12-11T02:27:03.490Z,99219.44
2022-12-11T02:29:38.284Z,99226.13
2022-12-11T02:32:16.290Z,99224.50
2022-12-11T02:35:03.533Z,99212.78
2022-12-11T02:37:35.658Z,99221.19
2022-12-11T02:40:06.539Z,99217.88
2022-12-11T02:42:36.044Z,99222.91
2022-12-11T02:45:06.563Z,99214.50
2022-12-11T02:47:34.030Z,99213.78
2022-12-11T02:50:06.523Z,99206.25
2022-12-11T02:52:34.869Z,99215.44
2022-12-11T02:55:03.855Z,99217.13
2022-12-11T02:57:46.906Z,99206.25
2022-12-11T03:00:16.578Z,99212.91
2022-12-11T03:02:44.011Z,99202.88
2022-12-11T03:05:13.437Z,99206.25
2022-12-11T03:07:44.056Z,99208.78
2022-12-11T03:10:15.321Z,99204.56
2022-12-11T03:12:51.814Z,99197.06
2022-12-11T03:15:30.173Z,99196.22
2022-12-11T03:18:13.693Z,99197.88
2022-12-11T03:21:03.893Z,99189.50
2022-12-11T03:23:46.496Z,99188.63
2022-12-11T03:26:18.785Z,99191.16
2022-12-11T03:28:59.449Z,99191.97
2022-12-11T03:31:43.656Z,99192.81
2022-12-11T03:34:25.804Z,99188.63
2022-12-11T03:36:56.084Z,99187.78
2022-12-11T03:39:32.296Z,99191.16
2022-12-11T03:42:04.597Z,99199.53
2022-12-11T03:44:34.473Z,99194.50
2022-12-11T03:47:04.452Z,99201.25
2022-12-11T03:49:40.042Z,99199.56
2022-12-11T03:52:10.061Z,99197.13
2022-12-11T03:54:39.488Z,99192.88
2022-12-11T03:57:09.415Z,99197.97
2022-12-11T03:59:36.166Z,99196.28
2022-12-11T04:02:10.600Z,99188.78
2022-12-11T04:04:42.383Z,99192.09
2022-12-11T04:07:09.739Z,99185.44
2022-12-11T04:09:36.949Z,99190.47
2022-12-11T04:12:03.833Z,99186.31
2022-12-11T04:14:48.851Z,99189.69
2022-12-11T04:17:35.641Z,99189.66
2022-12-11T04:20:22.543Z,99199.72
2022-12-11T04:23:07.718Z,99200.50
2022-12-11T04:25:34.405Z,99198.00
2022-12-11T04:28:01.160Z,99192.97
2022-12-11T04:30:33.735Z,99193.84
2022-12-11T04:33:01.437Z,99189.69
2022-12-11T04:35:28.520Z,99184.66
2022-12-11T04:37:55.623Z,99184.69
2022-12-11T04:40:22.691Z,99180.50
2022-12-11T04:42:49.495Z,99183.00
2022-12-11T04:45:16.553Z,99176.34
2022-12-11T04:47:43.286Z,99174.66
2022-12-11T04:50:12.968Z,99168.81
2022-12-11T04:52:39.898Z,99173.03
2022-12-11T04:55:08.756Z,99175.56
2022-12-11T04:57:35.840Z,99161.31
2022-12-11T05:00:06.556Z,99169.66
2022-12-11T05:02:38.879Z,99166.34
2022-12-11T05:05:09.877Z,99153.81
2022-12-11T05:07:37.926Z,99144.66
2022-12-11T05:10:06.740Z,99152.19
2022-12-11T05:12:33.788Z,99146.38
2022-12-11T05:15:00.543Z,99143.00
2022-12-11T05:17:27.324Z,99148.88
2022-12-11T05:19:54.232Z,99143.00
2022-12-11T05:22:20.964Z,99153.09
2022-12-11T05:24:49.847Z,99163.13
2022-12-11T05:27:16.579Z,99143.06
2022-12-11T05:29:43.398Z,99156.44
2022-12-11T05:32:10.241Z,99158.97
2022-12-11T05:34:37.054Z,99154.81
2022-12-11T05:37:03.969Z,99153.13
2022-12-11T05:39:30.821Z,99149.78
2022-12-11T05:41:57.837Z,99152.31
2022-12-11T05:44:25.164Z,99158.16
2022-12-11T05:46:51.968Z,99142.28
2022-12-11T05:49:20.191Z,99148.94
2022-12-11T05:51:47.541Z,99151.44
2022-12-11T05:54:14.353Z,99149.78
2022-12-11T05:56:41.244Z,99146.38
2022-12-11T05:59:08.987Z,99156.41
2022-12-11T06:01:39.672Z,99147.97
2022-12-11T06:04:08.447Z,99156.28
2022-12-11T06:06:36.137Z,99153.72
2022-12-11T06:09:05.324Z,99164.59
2022-12-11T06:11:34.128Z,99152.88
2022-12-11T06:14:03.682Z,99153.66
2022-12-11T06:16:30.896Z,99144.41
2022-12-11T06:18:58.831Z,99141.38
2022-12-11T06:21:31.893Z,99145.72
2022-12-11T06:24:02.719Z,99142.25
2022-12-11T06:26:31.890Z,99142.13
2022-12-11T06:28:58.652Z,99142.03
2022-12-11T06:31:28.398Z,99142.75
2022-12-11T06:33:55.625Z,99151.09
2022-12-11T06:36:24.345Z,99154.34
2022-12-11T06:38:52.863Z,99156.00
2022-12-11T06:41:19.590Z,99153.41
2022-12-11T06:43:46.873Z,99149.19
2022-12-11T06:46:17.371Z,99151.69
2022-12-11T06:48:45.376Z,99147.50
2022-12-11T06:51:22.210Z,99157.53
2022-12-11T06:53:57.113Z,99157.50
2022-12-11T06:56:24.964Z,99163.34
2022-12-11T06:58:52.320Z,99164.19
2022-12-11T07:01:27.387Z,99170.03
2022-12-11T07:03:56.927Z,99161.59
2022-12-11T07:06:25.904Z,99158.25
2022-12-11T07:08:53.111Z,99157.38
2022-12-11T07:11:21.570Z,99161.56
2022-12-11T07:13:49.018Z,99154.03
2022-12-11T07:16:17.757Z,99149.03
2022-12-11T07:18:49.386Z,99148.19
2022-12-11T07:21:16.356Z,99155.72
2022-12-11T07:23:43.539Z,99149.84
2022-12-11T07:26:16.843Z,99159.88
2022-12-11T07:28:44.189Z,99154.84
2022-12-11T07:31:18.952Z,99154.03
2022-12-11T07:33:46.460Z,99154.03
2022-12-11T07:36:15.431Z,99149.06
2022-12-11T07:38:42.491Z,99156.59
2022-12-11T07:41:13.447Z,99155.78
2022-12-11T07:43:41.734Z,99151.66
2022-12-11T07:46:13.993Z,99154.16
2022-12-11T07:48:43.673Z,99152.50
2022-12-11T07:51:26.373Z,99155.84
2022-12-11T07:53:57.058Z,99160.03
2022-12-11T07:56:24.124Z,99153.38
2022-12-11T07:58:50.893Z,99155.91
2022-12-11T08:01:26.313Z,99152.56
2022-12-11T08:03:54.407Z,99158.41
2022-12-11T08:06:30.088Z,99165.09
2022-12-11T08:08:58.823Z,99150.06
2022-12-11T08:11:27.165Z,99147.59
2022-12-11T08:13:55.584Z,99155.94
2022-12-11T08:16:23.102Z,99151.81
2022-12-11T08:18:49.914Z,99151.03
2022-12-11T08:21:28.330Z,99151.09
2022-12-11T08:23:55.861Z,99147.75
2022-12-11T08:26:28.168Z,99157.91
2022-12-11T08:28:56.404Z,99142.88
2022-12-11T08:31:24.598Z,99153.81
2022-12-11T08:33:53.132Z,99153.00
2022-12-11T08:36:21.971Z,99150.56
2022-12-11T08:38:49.812Z,99153.94
2022-12-11T08:41:24.123Z,99160.72
2022-12-11T08:43:55.107Z,99155.72
2022-12-11T08:46:25.517Z,99163.28
2022-12-11T08:48:54.016Z,99159.97
2022-12-11T08:51:24.970Z,99151.63
2022-12-11T08:53:55.333Z,99148.31
2022-12-11T08:56:23.675Z,99145.81
2022-12-11T08:58:51.564Z,99150.84
2022-12-11T09:01:26.298Z,99154.22
2022-12-11T09:03:55.418Z,99153.38
2022-12-11T09:06:25.745Z,99157.59
2022-12-11T09:08:53.883Z,99156.78
2022-12-11T09:11:25.731Z,99158.50
2022-12-11T09:13:53.626Z,99151.84
2022-12-11T09:16:24.502Z,99146.00
2022-12-11T09:18:53.923Z,99149.34
2022-12-11T09:21:24.504Z,99143.53
2022-12-11T09:23:58.011Z,99146.03
2022-12-11T09:26:26.129Z,99144.41
2022-12-11T09:28:53.747Z,99148.63
2022-12-11T09:31:30.083Z,99158.69
2022-12-11T09:34:04.149Z,99156.19
2022-12-11T09:36:31.299Z,99154.56
2022-12-11T09:39:04.147Z,99146.22
2022-12-11T09:41:46.613Z,99153.75
2022-12-11T09:44:33.526Z,99151.28
2022-12-11T09:47:01.576Z,99150.47
2022-12-11T09:49:40.830Z,99159.69
2022-12-11T09:52:34.177Z,99154.69
2022-12-11T09:55:14.917Z,99147.22
2022-12-11T09:58:11.587Z,99146.41
2022-12-11T10:01:12.655Z,99135.56
2022-12-11T10:04:00.788Z,99136.41
2022-12-11T10:07:02.283Z,99141.47
2022-12-11T10:09:43.369Z,99135.59
2022-12-11T10:12:21.799Z,99139.81
2022-12-11T10:15:19.014Z,99133.16
2022-12-11T10:17:47.137Z,99134.06
2022-12-11T10:20:33.576Z,99141.75
2022-12-11T10:23:01.378Z,99138.50
2022-12-11T10:25:39.856Z,99136.13
2022-12-11T10:28:19.349Z,99134.59
2022-12-11T10:31:20.069Z,99129.69
2022-12-11T10:34:02.060Z,99117.97
2022-12-11T10:36:35.096Z,99123.94
2022-12-11T10:39:02.683Z,99113.91
2022-12-11T10:41:42.443Z,99115.59
2022-12-11T10:44:29.906Z,99118.13
2022-12-11T10:47:17.879Z,99120.69
2022-12-11T10:49:58.313Z,99113.16
2022-12-11T10:52:39.002Z,99103.13
2022-12-11T10:55:24.375Z,99101.44
2022-12-11T10:58:01.681Z,99104.00
2022-12-11T11:00:39.170Z,99104.03
2022-12-11T11:03:22.170Z,99099.88
2022-12-11T11:05:50.634Z,99094.06
2022-12-11T11:08:25.010Z,99091.56
2022-12-11T11:10:53.137Z,99082.34
2022-12-11T11:13:24.144Z,99079.03
2022-12-11T11:16:13.477Z,99077.38
2022-12-11T11:18:43.391Z,99073.19
2022-12-11T11:21:23.369Z,99066.47
2022-12-11T11:23:53.589Z,99068.97
2022-12-11T11:26:38.289Z,99066.34
2022-12-11T11:29:32.008Z,99056.81
2022-12-11T11:32:17.225Z,99055.56
2022-12-11T11:34:44.029Z,99056.84
2022-12-11T11:37:31.660Z,99052.16
2022-12-11T11:40:13.170Z,99035.75
2022-12-11T11:42:49.305Z,99038.88
2022-12-11T11:45:53.602Z,99037.09
2022-12-11T11:48:58.633Z,99025.41
2022-12-11T11:51:34.681Z,99029.97
2022-12-11T11:54:20.756Z,99029.50
2022-12-11T11:56:52.696Z,99026.50
2022-12-11T11:59:36.304Z,99025.09
2022-12-11T12:02:15.341Z,99022.00
2022-12-11T12:04:43.271Z,99017.13
2022-12-11T12:07:38.594Z,99025.72
2022-12-11T12:11:23.627Z,99025.09
2022-12-11T12:14:43.603Z,99023.47
2022-12-11T12:17:18.256Z,99026.91
2022-12-11T12:20:24.046Z,99021.91
2022-12-11T12:23:32.006Z,99018.56
2022-12-11T12:26:46.913Z,99018.56
2022-12-11T12:29:31.847Z,99015.25
2022-12-11T12:32:32.164Z,99004.31
2022-12-11T12:35:17.681Z,99011.03
2022-12-11T12:38:04.768Z,99010.19
2022-12-11T12:41:16.856Z,99011.03
2022-12-11T12:44:05.282Z,99011.84
2022-12-11T12:47:05.176Z,99013.50
2022-12-11T12:49:48.734Z,99013.50
2022-12-11T12:52:31.585Z,99014.34
2022-12-11T12:55:14.811Z,99011.84
2022-12-11T12:58:00.950Z,99009.28
2022-12-11T13:00:41.704Z,99018.50
2022-12-11T13:03:20.915Z,99020.97
2022-12-11T13:05:58.981Z,99020.13
2022-12-11T13:08:37.135Z,99011.72
2022-12-11T13:11:09.790Z,99016.75
2022-12-11T13:13:48.969Z,99017.56
2022-12-11T13:16:18.516Z,99027.63
2022-12-11T13:18:48.187Z,99032.66
2022-12-11T13:21:31.777Z,99024.28
2022-12-11T13:24:30.258Z,99025.13
2022-12-11T13:27:09.183Z,99028.44
2022-12-11T13:29:42.188Z,99024.22
2022-12-11T13:32:17.667Z,99024.22
2022-12-11T13:34:56.808Z,99021.69
2022-12-11T13:37:38.595Z,99021.63
2022-12-11T13:40:22.258Z,99035.06
2022-12-11T13:42:58.986Z,99028.34
2022-12-11T13:45:46.444Z,99036.72
2022-12-11T13:48:41.289Z,99030.84
2022-12-11T13:51:08.036Z,99039.19
2022-12-11T13:53:34.729Z,99034.16
2022-12-11T13:56:07.995Z,99040.06
2022-12-11T13:58:38.495Z,99040.06
2022-12-11T14:01:12.246Z,99034.22
2022-12-11T14:03:43.193Z,99040.94
2022-12-11T14:06:18.324Z,99036.75
2022-12-11T14:08:53.083Z,99040.97
2022-12-11T14:11:31.001Z,99041.78
2022-12-11T14:14:02.009Z,99037.59
2022-12-11T14:16:30.331Z,99045.13
2022-12-11T14:19:06.086Z,99045.13
2022-12-11T14:21:33.633Z,99047.66
2022-12-11T14:24:03.971Z,99047.66
2022-12-11T14:26:34.606Z,99055.19
2022-12-11T14:29:02.821Z,99050.16
2022-12-11T14:31:40.908Z,99055.19
2022-12-11T14:34:17.431Z,99062.69
2022-12-11T14:36:46.399Z,99053.47
2022-12-11T14:39:32.193Z,99058.50
2022-12-11T14:42:14.885Z,99052.59
2022-12-11T14:44:50.244Z,99053.41
2022-12-11T14:47:23.269Z,99049.22
2022-12-11T14:50:02.985Z,99050.84
2022-12-11T14:52:58.568Z,99052.50
2022-12-11T14:55:34.921Z,99044.91
2022-12-11T14:58:16.517Z,99044.88
2022-12-11T15:00:43.445Z,99045.72
2022-12-11T15:03:10.448Z,99044.00
2022-12-11T15:05:49.919Z,99048.16
2022-12-11T15:08:25.415Z,99046.44
2022-12-11T15:11:14.013Z,99054.78
2022-12-11T15:14:11.900Z,99063.09
2022-12-11T15:16:41.606Z,99062.25
2022-12-11T15:19:22.910Z,99061.34
2022-12-11T15:21:50.774Z,99066.38
2022-12-11T15:24:47.010Z,99067.19
2022-12-11T15:27:37.761Z,99065.47
2022-12-11T15:30:15.809Z,99064.59
2022-12-11T15:32:43.269Z,99070.47
2022-12-11T15:35:28.308Z,99068.78
2022-12-11T15:38:00.021Z,99065.44
2022-12-11T15:40:27.747Z,99075.47
2022-12-11T15:42:55.994Z,99072.06
2022-12-11T15:45:28.349Z,99074.59
2022-12-11T15:47:56.158Z,99077.97
2022-12-11T15:50:29.076Z,99081.28
2022-12-11T15:52:56.944Z,99072.06
2022-12-11T15:55:27.218Z,99081.22
2022-12-11T15:58:02.268Z,99071.16
2022-12-11T16:00:29.361Z,99071.13
2022-12-11T16:02:57.662Z,99068.56
2022-12-11T16:05:25.692Z,99074.34
2022-12-11T16:07:53.998Z,99079.34
2022-12-11T16:10:22.624Z,99070.03
2022-12-11T16:12:49.374Z,99066.59
2022-12-11T16:15:21.623Z,99076.56
2022-12-11T16:17:59.303Z,99070.56
2022-12-11T16:20:26.060Z,99072.97
2022-12-11T16:22:52.737Z,99071.25
2022-12-11T16:25:19.473Z,99063.63
2022-12-11T16:27:46.145Z,99069.44
2022-12-11T16:30:13.995Z,99061.81
2022-12-11T16:32:40.760Z,99060.91
2022-12-11T16:35:07.700Z,99060.78
2022-12-11T16:37:34.615Z,99058.19
2022-12-11T16:40:01.368Z,99063.94
2022-12-11T16:42:28.134Z,99062.22
2022-12-11T16:44:54.830Z,99062.13
2022-12-11T16:47:21.567Z,99068.72
2022-12-11T16:49:48.244Z,99059.41
2022-12-11T16:52:19.042Z,99065.19
2022-12-11T16:54:48.823Z,99067.56
2022-12-11T16:57:15.833Z,99062.47
2022-12-11T16:59:43.436Z,99064.09
2022-12-11T17:02:11.559Z,99057.28
2022-12-11T17:04:39.331Z,99056.41
2022-12-11T17:07:06.782Z,99055.50
2022-12-11T17:09:33.884Z,99058.75
2022-12-11T17:12:01.945Z,99045.31
2022-12-11T17:14:28.729Z,99053.59
2022-12-11T17:16:56.573Z,99053.56
2022-12-11T17:19:23.683Z,99060.16
2022-12-11T17:21:51.804Z,99060.09
2022-12-11T17:24:18.723Z,99058.31
2022-12-11T17:26:45.526Z,99051.56
2022-12-11T17:29:13.515Z,99056.53
2022-12-11T17:31:40.686Z,99053.09
2022-12-11T17:34:07.813Z,99061.38
2022-12-11T17:36:34.635Z,99058.75
2022-12-11T17:39:01.518Z,99057.84
2022-12-11T17:41:28.307Z,99058.63
2022-12-11T17:43:56.017Z,99058.56
2022-12-11T17:46:23.291Z,99060.16
2022-12-11T17:48:50.121Z,99062.66
2022-12-11T17:51:23.825Z,99060.91
2022-12-11T17:53:52.549Z,99055.75
2022-12-11T17:56:19.648Z,99057.34
2022-12-11T17:58:46.459Z,99060.63
2022-12-11T18:01:13.878Z,99056.38
2022-12-11T18:03:41.673Z,99052.97
2022-12-11T18:06:14.270Z,99056.25
2022-12-11T18:08:42.305Z,99057.03
2022-12-11T18:11:16.644Z,99065.31
2022-12-11T18:13:44.634Z,99061.09
2022-12-11T18:16:19.375Z,99060.16
2022-12-11T18:18:48.267Z,99057.66
2022-12-11T18:21:19.831Z,99063.50
2022-12-11T18:23:46.792Z,99060.09
2022-12-11T18:26:14.530Z,99060.84
2022-12-11T18:28:42.062Z,99056.59
2022-12-11T18:31:09.749Z,99058.22
2022-12-11T18:33:42.857Z,99059.00
2022-12-11T18:36:11.513Z,99059.81
2022-12-11T18:38:38.714Z,99058.97
2022-12-11T18:41:08.316Z,99058.09
2022-12-11T18:43:37.576Z,99064.78
2022-12-11T18:46:10.900Z,99058.06
2022-12-11T18:48:38.373Z,99063.06
2022-12-11T18:51:12.084Z,99059.75
2022-12-11T18:53:39.524Z,99059.75
2022-12-11T18:56:14.811Z,99059.75
2022-12-11T18:58:41.817Z,99057.25
2022-12-11T19:01:18.583Z,99062.25
2022-12-11T19:03:45.902Z,99055.59
2022-12-11T19:06:24.187Z,99064.81
2022-12-11T19:08:51.888Z,99065.75
2022-12-11T19:11:22.443Z,99070.88
2022-12-11T19:13:51.189Z,99065.09
2022-12-11T19:16:33.556Z,99061.84
2022-12-11T19:19:09.823Z,99056.88
2022-12-11T19:21:40.119Z,99063.59
2022-12-11T19:24:11.541Z,99062.03
2022-12-11T19:26:38.533Z,99057.13
2022-12-11T19:29:05.355Z,99063.00
2022-12-11T19:31:33.118Z,99062.31
2022-12-11T19:34:01.003Z,99062.25
2022-12-11T19:36:30.589Z,99064.06
2022-12-11T19:39:01.527Z,99059.09
2022-12-11T19:41:30.979Z,99051.69
2022-12-11T19:43:59.917Z,99051.72
2022-12-11T19:46:29.081Z,99046.81
2022-12-11T19:48:58.487Z,99053.50
2022-12-11T19:51:33.690Z,99056.88
2022-12-11T19:54:04.096Z,99051.09
2022-12-11T19:56:32.193Z,99056.09
2022-12-11T19:59:01.838Z,99058.59
2022-12-11T20:01:32.300Z,99047.72
2022-12-11T20:04:05.938Z,99054.41
2022-12-11T20:06:37.018Z,99059.41
2022-12-11T20:09:06.182Z,99055.22
2022-12-11T20:11:34.030Z,99055.22
2022-12-11T20:14:00.849Z,99057.78
2022-12-11T20:16:53.696Z,99048.50
2022-12-11T20:19:14.940Z,99052.63
2022-12-11T20:21:42.291Z,99049.25
2022-12-11T20:24:09.901Z,99056.78
2022-12-11T20:26:38.085Z,99055.13
2022-12-11T20:29:08.082Z,99058.44
2022-12-11T20:31:36.816Z,99059.28
2022-12-11T20:34:04.745Z,99060.16
2022-12-11T20:36:31.767Z,99059.34
2022-12-11T20:38:59.022Z,99069.38
2022-12-11T20:41:27.549Z,99062.69
2022-12-11T20:43:54.448Z,99067.78
2022-12-11T20:46:25.192Z,99064.50
2022-12-11T20:48:52.893Z,99061.16
2022-12-11T20:51:25.700Z,99062.03
2022-12-11T20:53:59.315Z,99059.56
2022-12-11T20:56:30.326Z,99055.44
2022-12-11T20:58:58.994Z,99057.09
2022-12-11T21:01:30.190Z,99058.00
2022-12-11T21:03:57.452Z,99058.78
2022-12-11T21:06:31.852Z,99056.28
2022-12-11T21:09:06.263Z,99061.31
2022-12-11T21:11:33.134Z,99056.28
2022-12-11T21:13:59.933Z,99065.50
2022-12-11T21:16:27.894Z,99062.19
2022-12-11T21:18:56.552Z,99062.09
2022-12-11T21:21:23.683Z,99074.69
2022-12-11T21:23:50.610Z,99080.53
2022-12-11T21:26:17.776Z,99071.34
2022-12-11T21:28:44.720Z,99079.72
2022-12-11T21:31:16.654Z,99076.38
2022-12-11T21:33:43.737Z,99079.72
2022-12-11T21:36:13.544Z,99083.00
2022-12-11T21:38:43.512Z,99074.56
2022-12-11T21:41:17.186Z,99065.31
2022-12-11T21:44:56.501Z,99066.00
2022-12-11T21:46:32.891Z,99065.84
2022-12-11T21:48:59.995Z,99066.59
2022-12-11T21:51:36.832Z,99064.06
2022-12-11T21:54:06.827Z,99068.19
2022-12-11T21:56:34.168Z,99070.69
2022-12-11T21:59:01.594Z,99076.53
2022-12-11T22:01:34.914Z,99076.53
2022-12-11T22:04:02.287Z,99080.69
2022-12-11T22:06:29.023Z,99080.66
2022-12-11T22:08:55.930Z,99084.03
2022-12-11T22:11:27.648Z,99084.03
2022-12-11T22:13:55.356Z,99084.91
2022-12-11T22:16:22.634Z,99088.31
2022-12-11T22:18:49.407Z,99081.72
2022-12-11T22:21:17.034Z,99081.78
2022-12-11T22:23:44.894Z,99093.53
2022-12-11T22:26:19.755Z,99087.81
2022-12-11T22:28:47.256Z,99094.56
2022-12-11T22:31:19.657Z,99100.47
2022-12-11T22:33:49.554Z,99103.03
2022-12-11T22:36:18.786Z,99102.25
2022-12-11T22:38:46.722Z,99105.66
2022-12-11T22:41:23.513Z,99107.38
2022-12-11T22:43:50.944Z,99103.19
2022-12-11T22:46:21.052Z,99109.09
2022-12-11T22:48:48.005Z,99104.06
2022-12-11T22:51:15.499Z,99102.38
2022-12-11T22:53:42.311Z,99098.19
2022-12-11T22:56:12.992Z,99099.84
2022-12-11T22:58:40.659Z,99094.84
2022-12-11T23:01:14.762Z,99090.66
2022-12-11T23:03:42.071Z,99093.13
2022-12-11T23:06:13.762Z,99093.94
2022-12-11T23:08:41.972Z,99113.06
2022-12-11T23:11:11.567Z,99107.25
2022-12-11T23:13:38.336Z,99103.03
2022-12-11T23:16:05.520Z,99100.50
2022-12-11T23:18:32.731Z,99106.28
2022-12-11T23:20:59.774Z,99102.88
2022-12-11T23:23:26.450Z,99103.63
2022-12-11T23:25:53.240Z,99099.41
2022-12-11T23:28:20.034Z,99097.69
2022-12-11T23:30:47.065Z,99099.25
2022-12-11T23:33:14.204Z,99108.34
2022-12-11T23:35:41.038Z,99103.25
2022-12-11T23:38:08.180Z,99108.13
2022-12-11T23:40:35.462Z,99102.97
2022-12-11T23:43:02.215Z,99106.22
2022-12-11T23:45:29.067Z,99102.75
2022-12-11T23:47:55.985Z,99117.66
2022-12-11T23:50:22.776Z,99104.22
2022-12-11T23:52:49.479Z,99118.34
2022-12-11T23:55:16.256Z,99112.41
2022-12-11T23:57:42.997Z,99122.38
